createdAt,value
2022-10-15T00:00:07.924Z,14.10
2022-10-15T00:02:34.473Z,14.10
2022-10-15T00:05:01.030Z,14.00
2022-10-15T00:07:28.770Z,14.00
2022-10-15T00:09:55.214Z,13.90
2022-10-15T00:12:21.690Z,14.10
2022-10-15T00:14:48.146Z,14.10
2022-10-15T00:17:14.597Z,14.10
2022-10-15T00:19:41.119Z,14.10
2022-10-15T00:22:07.583Z,13.90
2022-10-15T00:24:34.043Z,13.80
2022-10-15T00:27:00.624Z,14.00
2022-10-15T00:29:27.121Z,14.00
2022-10-15T00:31:54.711Z,14.20
2022-10-15T00:34:21.178Z,13.90
2022-10-15T00:36:50.419Z,13.80
2022-10-15T00:39:17.073Z,13.90
2022-10-15T00:41:44.486Z,14.20
2022-10-15T00:44:29.424Z,14.60
2022-10-15T00:47:01.346Z,14.60
2022-10-15T00:49:28.806Z,14.60
2022-10-15T00:51:58.128Z,14.60
2022-10-15T00:54:25.725Z,14.90
2022-10-15T00:56:52.590Z,15.10
2022-10-15T00:59:19.909Z,14.70
2022-10-15T01:01:46.748Z,14.60
2022-10-15T01:04:13.235Z,14.30
2022-10-15T01:06:39.889Z,14.30
2022-10-15T01:09:08.805Z,14.40
2022-10-15T01:11:44.074Z,14.20
2022-10-15T01:14:55.841Z,14.20
2022-10-15T01:17:38.225Z,14.00
2022-10-15T01:20:32.167Z,14.00
2022-10-15T01:23:26.434Z,13.90
2022-10-15T01:26:23.104Z,14.20
2022-10-15T01:29:03.119Z,14.00
2022-10-15T01:31:49.334Z,14.10
2022-10-15T01:34:43.724Z,14.30
2022-10-15T01:37:23.904Z,14.40
2022-10-15T01:39:56.367Z,14.00
2022-10-15T01:42:26.181Z,14.20
2022-10-15T01:44:56.491Z,14.20
2022-10-15T01:47:55.808Z,14.00
2022-10-15T01:50:24.516Z,14.10
2022-10-15T01:52:51.808Z,14.20
2022-10-15T01:55:19.539Z,14.10
2022-10-15T01:57:46.416Z,14.20
2022-10-15T02:00:14.194Z,13.90
2022-10-15T02:02:41.063Z,13.90
2022-10-15T02:05:22.307Z,13.90
2022-10-15T02:08:28.806Z,13.70
2022-10-15T02:11:04.744Z,13.70
2022-10-15T02:14:06.706Z,13.60
2022-10-15T02:16:35.823Z,13.70
2022-10-15T02:19:18.023Z,13.70
2022-10-15T02:21:45.761Z,13.60
2022-10-15T02:24:22.628Z,13.60
2022-10-15T02:26:51.059Z,13.70
2022-10-15T02:29:20.662Z,13.90
2022-10-15T02:31:48.029Z,14.00
2022-10-15T02:34:19.036Z,14.00
2022-10-15T02:36:46.646Z,13.80
2022-10-15T02:39:18.472Z,13.80
2022-10-15T02:41:45.496Z,13.80
2022-10-15T02:44:13.057Z,13.80
2022-10-15T02:46:39.563Z,13.80
2022-10-15T02:49:06.194Z,14.00
2022-10-15T02:51:33.818Z,14.20
2022-10-15T02:54:01.863Z,14.20
2022-10-15T02:59:00.063Z,14.10
2022-10-15T03:01:26.952Z,13.90
2022-10-15T03:03:53.563Z,13.90
2022-10-15T03:06:20.054Z,13.90
2022-10-15T03:08:47.911Z,14.00
2022-10-15T03:11:14.561Z,13.90
2022-10-15T03:13:41.519Z,14.00
2022-10-15T03:16:09.205Z,14.00
2022-10-15T03:18:39.815Z,14.10
2022-10-15T03:21:08.884Z,14.10
2022-10-15T03:23:35.368Z,14.10
2022-10-15T03:26:07.532Z,14.00
2022-10-15T03:28:34.127Z,14.00
2022-10-15T03:31:00.655Z,14.10
2022-10-15T03:33:27.269Z,14.00
2022-10-15T03:35:55.008Z,14.10
2022-10-15T03:38:22.136Z,14.20
2022-10-15T03:40:50.433Z,14.00
2022-10-15T03:43:25.215Z,14.00
2022-10-15T03:45:53.121Z,14.10
2022-10-15T03:48:23.052Z,14.00
2022-10-15T03:50:49.493Z,13.90
2022-10-15T03:53:15.993Z,13.80
2022-10-15T03:55:42.876Z,13.90
2022-10-15T03:58:09.539Z,14.00
2022-10-15T04:00:45.002Z,13.80
2022-10-15T04:03:11.627Z,14.00
2022-10-15T04:05:38.376Z,13.90
2022-10-15T04:08:08.299Z,13.80
2022-10-15T04:10:38.954Z,13.90
2022-10-15T04:13:06.200Z,13.80
2022-10-15T04:15:34.165Z,13.80
2022-10-15T04:18:05.349Z,13.90
2022-10-15T04:20:31.936Z,14.10
2022-10-15T04:23:10.295Z,13.80
2022-10-15T04:25:39.352Z,13.90
2022-10-15T04:28:07.177Z,13.90
2022-10-15T04:30:35.977Z,13.70
2022-10-15T04:33:05.811Z,14.00
2022-10-15T04:35:34.990Z,13.90
2022-10-15T04:38:08.709Z,14.10
2022-10-15T04:41:01.664Z,14.00
2022-10-15T04:43:38.923Z,14.20
2022-10-15T04:46:09.216Z,14.10
2022-10-15T04:48:40.456Z,13.90
2022-10-15T04:51:13.391Z,13.90
2022-10-15T04:53:59.097Z,13.80
2022-10-15T04:56:25.648Z,13.80
2022-10-15T04:58:52.527Z,14.00
2022-10-15T05:01:21.120Z,13.90
2022-10-15T05:04:01.308Z,13.90
2022-10-15T05:06:29.330Z,13.70
2022-10-15T05:09:03.302Z,13.90
2022-10-15T05:11:31.754Z,13.80
2022-10-15T05:13:58.687Z,14.00
2022-10-15T05:16:28.595Z,14.00
2022-10-15T05:19:00.255Z,14.20
2022-10-15T05:21:27.052Z,14.20
2022-10-15T05:23:57.378Z,14.10
2022-10-15T05:26:46.816Z,14.00
2022-10-15T05:29:15.030Z,14.20
2022-10-15T05:31:41.627Z,14.40
2022-10-15T05:34:15.220Z,14.30
2022-10-15T05:36:50.757Z,14.20
2022-10-15T05:39:17.204Z,14.30
2022-10-15T05:41:45.294Z,14.20
2022-10-15T05:44:11.755Z,14.10
2022-10-15T05:46:38.482Z,14.10
2022-10-15T05:49:04.967Z,13.90
2022-10-15T05:51:41.806Z,14.00
2022-10-15T05:54:16.867Z,14.30
2022-10-15T05:56:43.373Z,14.30
2022-10-15T05:59:10.180Z,14.20
2022-10-15T06:01:37.715Z,14.10
2022-10-15T06:04:04.303Z,14.20
2022-10-15T06:06:32.665Z,14.20
2022-10-15T06:08:59.193Z,14.10
2022-10-15T06:11:25.667Z,14.00
2022-10-15T06:13:52.195Z,14.20
2022-10-15T06:16:22.560Z,14.20
2022-10-15T06:18:52.493Z,14.10
2022-10-15T06:21:19.104Z,14.10
2022-10-15T06:23:45.783Z,14.00
2022-10-15T06:26:12.455Z,14.00
2022-10-15T06:28:39.174Z,14.10
2022-10-15T06:31:06.561Z,14.10
2022-10-15T06:33:33.257Z,14.10
2022-10-15T06:36:04.996Z,14.10
2022-10-15T06:38:31.919Z,14.10
2022-10-15T06:40:58.537Z,14.20
2022-10-15T06:43:25.113Z,14.20
2022-10-15T06:45:51.809Z,14.20
2022-10-15T06:48:18.455Z,14.10
2022-10-15T06:50:45.000Z,14.10
2022-10-15T06:53:11.459Z,14.10
2022-10-15T06:55:39.490Z,14.20
2022-10-15T06:58:06.123Z,14.30
2022-10-15T07:00:32.675Z,14.20
2022-10-15T07:03:04.115Z,14.40
2022-10-15T07:05:30.577Z,14.40
2022-10-15T07:07:57.622Z,14.40
2022-10-15T07:10:25.584Z,14.50
2022-10-15T07:12:52.487Z,14.50
2022-10-15T07:15:19.156Z,14.60
2022-10-15T07:17:50.162Z,14.70
2022-10-15T07:20:21.644Z,14.70
2022-10-15T07:22:50.921Z,14.70
2022-10-15T07:25:18.226Z,14.60
2022-10-15T07:27:44.754Z,14.70
2022-10-15T07:30:11.437Z,15.20
2022-10-15T07:32:38.105Z,15.30
2022-10-15T07:35:05.204Z,15.40
2022-10-15T07:37:31.934Z,15.20
2022-10-15T07:39:58.454Z,15.10
2022-10-15T07:42:24.922Z,15.00
2022-10-15T07:44:51.417Z,14.90
2022-10-15T07:47:18.030Z,15.00
2022-10-15T07:49:44.515Z,15.00
2022-10-15T07:52:11.112Z,15.30
2022-10-15T07:54:37.723Z,15.80
2022-10-15T07:57:04.350Z,15.70
2022-10-15T07:59:30.820Z,15.50
2022-10-15T08:01:57.259Z,15.60
2022-10-15T08:04:23.757Z,15.50
2022-10-15T08:06:50.245Z,15.70
2022-10-15T08:09:17.266Z,15.70
2022-10-15T08:11:43.721Z,16.20
2022-10-15T08:14:12.053Z,16.20
2022-10-15T08:16:38.532Z,16.00
2022-10-15T08:19:05.476Z,15.90
2022-10-15T08:21:32.001Z,16.00
2022-10-15T08:23:58.752Z,15.90
2022-10-15T08:26:32.989Z,15.90
2022-10-15T08:28:59.483Z,16.20
2022-10-15T08:31:26.045Z,16.30
2022-10-15T08:33:52.567Z,16.40
2022-10-15T08:36:19.050Z,16.50
2022-10-15T08:38:45.500Z,16.40
2022-10-15T08:41:38.460Z,16.90
2022-10-15T08:44:05.351Z,17.10
2022-10-15T08:46:36.886Z,17.00
2022-10-15T08:49:04.407Z,17.00
2022-10-15T08:51:38.928Z,17.50
2022-10-15T08:54:06.442Z,18.00
2022-10-15T08:56:43.937Z,18.60
2022-10-15T08:59:27.345Z,18.50
2022-10-15T09:02:17.900Z,18.50
2022-10-15T09:04:52.594Z,18.30
2022-10-15T09:07:31.902Z,17.90
2022-10-15T09:10:11.055Z,18.00
2022-10-15T09:13:03.396Z,18.30
2022-10-15T09:15:33.239Z,18.10
2022-10-15T09:17:59.801Z,18.00
2022-10-15T09:20:34.681Z,17.70
2022-10-15T09:23:01.233Z,17.60
2022-10-15T09:25:36.361Z,17.50
2022-10-15T09:28:10.608Z,17.50
2022-10-15T09:30:42.763Z,18.10
2022-10-15T09:33:18.678Z,17.90
2022-10-15T09:36:11.993Z,18.00
2022-10-15T09:39:09.013Z,18.10
2022-10-15T09:42:07.739Z,18.10
2022-10-15T09:44:40.390Z,18.20
2022-10-15T09:47:23.416Z,18.20
2022-10-15T09:49:49.853Z,18.50
2022-10-15T09:52:22.706Z,18.40
2022-10-15T09:54:58.293Z,18.10
2022-10-15T09:57:25.299Z,18.00
2022-10-15T10:00:02.790Z,17.70
2022-10-15T10:02:38.772Z,17.90
2022-10-15T10:05:29.821Z,17.60
2022-10-15T10:08:21.883Z,17.70
2022-10-15T10:11:02.550Z,18.20
2022-10-15T10:13:45.915Z,18.40
2022-10-15T10:16:14.834Z,18.30
2022-10-15T10:18:42.936Z,18.00
2022-10-15T10:21:42.869Z,17.90
2022-10-15T10:24:31.769Z,17.90
2022-10-15T10:26:59.101Z,18.00
2022-10-15T10:29:34.162Z,18.50
2022-10-15T10:32:10.971Z,18.30
2022-10-15T10:34:37.438Z,17.90
2022-10-15T10:37:05.177Z,17.90
2022-10-15T10:39:33.056Z,17.90
2022-10-15T10:42:24.090Z,18.40
2022-10-15T10:44:52.788Z,18.40
2022-10-15T10:47:21.913Z,18.20
2022-10-15T10:49:57.407Z,18.50
2022-10-15T10:52:44.261Z,18.40
2022-10-15T10:55:19.526Z,18.20
2022-10-15T10:57:58.264Z,18.10
2022-10-15T11:00:45.665Z,18.00
2022-10-15T11:03:23.018Z,17.80
2022-10-15T11:06:09.282Z,17.80
2022-10-15T11:08:35.685Z,17.90
2022-10-15T11:11:08.786Z,18.10
2022-10-15T11:14:07.985Z,18.40
2022-10-15T11:17:00.724Z,18.40
2022-10-15T11:22:42.064Z,18.60
2022-10-15T11:25:28.225Z,18.70
2022-10-15T11:28:06.353Z,18.70
2022-10-15T11:31:05.162Z,18.50
2022-10-15T11:34:01.508Z,18.30
2022-10-15T11:37:01.335Z,18.20
2022-10-15T11:39:53.641Z,18.30
2022-10-15T11:42:28.346Z,18.30
2022-10-15T11:45:07.171Z,18.60
2022-10-15T11:47:48.294Z,18.90
2022-10-15T11:50:40.686Z,18.80
2022-10-15T11:53:29.085Z,18.70
2022-10-15T11:56:12.158Z,19.00
2022-10-15T11:59:00.933Z,19.60
2022-10-15T12:01:33.458Z,19.80
2022-10-15T12:04:10.313Z,20.20
2022-10-15T12:06:41.736Z,20.00
2022-10-15T12:09:13.213Z,20.20
2022-10-15T12:11:53.540Z,20.20
2022-10-15T12:14:43.562Z,20.10
2022-10-15T12:17:21.755Z,20.40
2022-10-15T12:19:51.819Z,20.00
2022-10-15T12:22:37.559Z,20.00
2022-10-15T12:25:05.107Z,19.60
2022-10-15T12:27:35.011Z,19.80
2022-10-15T12:30:07.695Z,20.00
2022-10-15T12:32:48.756Z,20.20
2022-10-15T12:35:15.275Z,20.10
2022-10-15T12:37:43.569Z,20.00
2022-10-15T12:40:22.396Z,19.30
2022-10-15T12:43:03.125Z,19.40
2022-10-15T12:45:40.909Z,19.10
2022-10-15T12:48:20.894Z,18.80
2022-10-15T12:50:47.434Z,18.70
2022-10-15T12:53:26.278Z,18.50
2022-10-15T12:56:23.851Z,18.40
2022-10-15T12:58:51.428Z,18.50
2022-10-15T13:01:21.123Z,18.50
2022-10-15T13:03:50.442Z,18.60
2022-10-15T13:06:20.101Z,18.30
2022-10-15T13:09:16.456Z,18.30
2022-10-15T13:14:30.534Z,18.70
2022-10-15T13:17:01.253Z,18.50
2022-10-15T13:19:51.092Z,18.40
2022-10-15T13:22:26.134Z,18.40
2022-10-15T13:24:53.130Z,18.30
2022-10-15T13:27:32.382Z,18.30
2022-10-15T13:30:12.318Z,18.30
2022-10-15T13:32:45.996Z,18.30
2022-10-15T13:35:16.310Z,18.20
2022-10-15T13:37:43.580Z,18.20
2022-10-15T13:40:28.269Z,18.20
2022-10-15T13:43:06.278Z,18.10
2022-10-15T13:45:33.326Z,18.00
2022-10-15T13:47:59.973Z,18.10
2022-10-15T13:50:31.556Z,18.10
2022-10-15T13:53:36.372Z,18.10
2022-10-15T13:56:05.308Z,18.20
2022-10-15T13:58:34.317Z,18.30
2022-10-15T14:01:13.661Z,18.20
2022-10-15T14:03:50.235Z,18.10
2022-10-15T14:06:20.865Z,18.00
2022-10-15T14:08:49.944Z,18.30
2022-10-15T14:11:16.464Z,18.50
2022-10-15T14:13:46.262Z,18.60
2022-10-15T14:16:23.983Z,18.80
2022-10-15T14:19:10.170Z,19.10
2022-10-15T14:21:37.690Z,19.20
2022-10-15T14:24:06.903Z,18.80
2022-10-15T14:26:34.981Z,18.60
2022-10-15T14:29:02.063Z,18.60
2022-10-15T14:31:38.267Z,18.50
2022-10-15T14:34:35.266Z,18.40
2022-10-15T14:37:41.216Z,18.30
2022-10-15T14:40:10.857Z,18.50
2022-10-15T14:42:40.648Z,18.50
2022-10-15T14:45:18.860Z,18.80
2022-10-15T14:47:48.180Z,18.80
2022-10-15T14:50:15.233Z,18.80
2022-10-15T14:52:46.915Z,18.60
2022-10-15T14:55:16.105Z,18.70
2022-10-15T14:57:44.464Z,18.70
2022-10-15T15:00:24.424Z,18.70
2022-10-15T15:02:54.229Z,18.60
2022-10-15T15:05:23.809Z,18.50
2022-10-15T15:07:50.772Z,18.50
2022-10-15T15:10:18.001Z,18.70
2022-10-15T15:12:49.862Z,18.90
2022-10-15T15:15:18.447Z,18.80
2022-10-15T15:17:45.705Z,18.80
2022-10-15T15:20:12.758Z,18.80
2022-10-15T15:22:42.037Z,18.70
2022-10-15T15:25:20.991Z,18.60
2022-10-15T15:27:47.816Z,18.50
2022-10-15T15:30:34.364Z,18.20
2022-10-15T15:33:01.164Z,18.20
2022-10-15T15:35:33.782Z,18.10
2022-10-15T15:38:00.385Z,18.20
2022-10-15T15:40:27.155Z,18.10
2022-10-15T15:42:55.866Z,18.10
2022-10-15T15:45:26.874Z,18.00
2022-10-15T15:47:53.550Z,17.80
2022-10-15T15:50:22.661Z,18.00
2022-10-15T15:52:49.284Z,18.20
2022-10-15T15:55:15.856Z,18.20
2022-10-15T15:57:45.186Z,18.30
2022-10-15T16:00:12.412Z,18.10
2022-10-15T16:02:39.359Z,18.20
2022-10-15T16:05:07.741Z,18.10
2022-10-15T16:07:35.126Z,18.00
2022-10-15T16:10:01.971Z,17.70
2022-10-15T16:12:28.602Z,17.60
2022-10-15T16:14:55.831Z,18.20
2022-10-15T16:17:24.159Z,18.60
2022-10-15T16:19:50.936Z,18.80
2022-10-15T16:22:17.446Z,19.00
2022-10-15T16:24:44.110Z,19.00
2022-10-15T16:27:10.631Z,19.10
2022-10-15T16:29:37.289Z,19.10
2022-10-15T16:32:04.315Z,19.20
2022-10-15T16:34:31.298Z,19.10
2022-10-15T16:36:57.933Z,19.00
2022-10-15T16:39:24.576Z,19.00
2022-10-15T16:41:51.094Z,18.90
2022-10-15T16:44:17.947Z,18.70
2022-10-15T16:46:44.791Z,18.80
2022-10-15T16:49:11.375Z,18.70
2022-10-15T16:51:41.237Z,18.60
2022-10-15T16:54:15.426Z,18.70
2022-10-15T16:56:42.465Z,18.60
2022-10-15T16:59:09.368Z,18.60
2022-10-15T17:01:36.647Z,18.50
2022-10-15T17:04:06.018Z,18.60
2022-10-15T17:06:33.012Z,18.40
2022-10-15T17:09:01.049Z,18.40
2022-10-15T17:11:31.499Z,18.40
2022-10-15T17:14:00.134Z,18.30
2022-10-15T17:16:38.298Z,18.40
2022-10-15T17:19:05.199Z,18.50
2022-10-15T17:21:32.221Z,18.50
2022-10-15T17:24:01.482Z,18.60
2022-10-15T17:26:33.159Z,18.70
2022-10-15T17:28:59.857Z,18.70
2022-10-15T17:31:27.175Z,18.60
2022-10-15T17:34:01.969Z,18.70
2022-10-15T17:36:31.414Z,18.60
2022-10-15T17:38:59.186Z,18.40
2022-10-15T17:41:27.770Z,18.60
2022-10-15T17:43:54.858Z,18.50
2022-10-15T17:46:27.168Z,18.40
2022-10-15T17:48:55.098Z,18.30
2022-10-15T17:51:25.083Z,18.30
2022-10-15T17:53:55.372Z,18.30
2022-10-15T17:56:43.990Z,18.40
2022-10-15T17:59:12.030Z,18.50
2022-10-15T18:01:58.906Z,18.40
2022-10-15T18:04:29.963Z,18.30
2022-10-15T18:06:56.719Z,18.30
2022-10-15T18:09:24.439Z,18.20
2022-10-15T18:11:51.387Z,18.00
2022-10-15T18:14:18.564Z,17.90
2022-10-15T18:16:46.821Z,18.10
2022-10-15T18:19:13.365Z,18.20
2022-10-15T18:21:48.475Z,18.30
2022-10-15T18:24:21.647Z,18.10
2022-10-15T18:26:51.985Z,18.20
2022-10-15T18:29:19.136Z,18.20
2022-10-15T18:31:46.985Z,17.90
2022-10-15T18:34:13.555Z,17.50
2022-10-15T18:36:42.347Z,17.10
2022-10-15T18:39:09.153Z,17.30
2022-10-15T18:41:38.073Z,16.60
2022-10-15T18:44:07.673Z,16.30
2022-10-15T18:46:35.055Z,16.40
2022-10-15T18:49:02.305Z,16.50
2022-10-15T18:51:30.792Z,16.30
2022-10-15T18:53:58.376Z,16.20
2022-10-15T18:56:28.302Z,16.20
2022-10-15T18:58:55.379Z,16.20
2022-10-15T19:01:28.155Z,16.50
2022-10-15T19:03:56.774Z,16.40
2022-10-15T19:06:26.240Z,16.20
2022-10-15T19:09:04.626Z,16.20
2022-10-15T19:11:33.095Z,16.10
2022-10-15T19:14:02.283Z,15.90
2022-10-15T19:16:29.759Z,16.00
2022-10-15T19:19:04.272Z,16.10
2022-10-15T19:21:31.676Z,16.00
2022-10-15T19:24:01.753Z,16.00
2022-10-15T19:26:37.855Z,15.80
2022-10-15T19:29:05.233Z,15.70
2022-10-15T19:31:42.753Z,15.90
2022-10-15T19:34:10.137Z,16.10
2022-10-15T19:36:39.803Z,16.00
2022-10-15T19:39:09.560Z,15.90
2022-10-15T19:41:38.450Z,15.80
2022-10-15T19:44:05.446Z,16.00
2022-10-15T19:46:37.854Z,16.00
2022-10-15T19:49:06.492Z,16.10
2022-10-15T19:51:33.363Z,15.80
2022-10-15T19:54:00.195Z,15.80
2022-10-15T19:56:30.865Z,16.00
2022-10-15T19:58:59.324Z,15.90
2022-10-15T20:01:26.640Z,15.90
2022-10-15T20:03:53.463Z,15.80
2022-10-15T20:06:20.752Z,15.70
2022-10-15T20:08:50.016Z,15.70
2022-10-15T20:11:16.926Z,15.50
2022-10-15T20:13:43.446Z,15.60
2022-10-15T20:16:11.582Z,15.90
2022-10-15T20:18:38.313Z,15.80
2022-10-15T20:21:15.078Z,16.10
2022-10-15T20:23:42.792Z,15.80
2022-10-15T20:26:12.153Z,15.80
2022-10-15T20:28:42.884Z,15.90
2022-10-15T20:31:14.260Z,15.90
2022-10-15T20:33:41.126Z,15.90
2022-10-15T20:36:13.754Z,15.90
2022-10-15T20:38:48.364Z,15.80
2022-10-15T20:41:17.297Z,15.90
2022-10-15T20:43:45.226Z,16.00
2022-10-15T20:46:27.846Z,15.90
2022-10-15T20:48:56.090Z,16.10
2022-10-15T20:51:27.581Z,15.80
2022-10-15T20:53:55.607Z,16.00
2022-10-15T20:56:23.338Z,16.10
2022-10-15T20:58:49.883Z,15.90
2022-10-15T21:01:16.662Z,15.90
2022-10-15T21:03:43.223Z,15.80
2022-10-15T21:06:09.663Z,15.70
2022-10-15T21:08:36.372Z,15.80
2022-10-15T21:11:07.192Z,15.70
2022-10-15T21:13:34.355Z,15.70
2022-10-15T21:16:02.795Z,15.70
2022-10-15T21:18:29.818Z,15.80
2022-10-15T21:21:22.733Z,15.80
2022-10-15T21:23:49.230Z,15.80
2022-10-15T21:26:17.351Z,15.60
2022-10-15T21:28:45.078Z,15.70
2022-10-15T21:31:15.121Z,15.60
2022-10-15T21:33:42.389Z,15.50
2022-10-15T21:36:13.669Z,15.50
2022-10-15T21:38:40.439Z,15.50
2022-10-15T21:41:08.195Z,15.60
2022-10-15T21:43:34.868Z,15.60
2022-10-15T21:46:05.878Z,15.70
2022-10-15T21:48:32.423Z,15.70
2022-10-15T21:50:58.952Z,15.70
2022-10-15T21:53:25.454Z,15.80
2022-10-15T21:55:53.402Z,15.50
2022-10-15T21:58:20.204Z,15.60
2022-10-15T22:00:46.823Z,15.50
2022-10-15T22:03:13.325Z,15.40
2022-10-15T22:05:40.034Z,15.20
2022-10-15T22:08:07.947Z,15.30
2022-10-15T22:10:39.182Z,15.20
2022-10-15T22:13:12.822Z,15.30
2022-10-15T22:15:40.618Z,15.20
2022-10-15T22:18:07.196Z,15.20
2022-10-15T22:20:33.693Z,15.20
2022-10-15T22:23:00.213Z,15.30
2022-10-15T22:25:26.727Z,15.40
2022-10-15T22:27:53.182Z,15.40
2022-10-15T22:30:19.636Z,15.30
2022-10-15T22:32:46.844Z,15.20
2022-10-15T22:35:13.698Z,15.20
2022-10-15T22:37:40.232Z,15.30
2022-10-15T22:40:07.186Z,15.30
2022-10-15T22:42:34.300Z,15.40
2022-10-15T22:45:01.128Z,15.40
2022-10-15T22:47:27.693Z,15.60
2022-10-15T22:49:54.226Z,15.30
2022-10-15T22:52:20.849Z,15.30
2022-10-15T22:54:47.299Z,15.40
2022-10-15T22:57:13.723Z,15.40
2022-10-15T22:59:43.408Z,15.50
2022-10-15T23:02:09.872Z,15.40
2022-10-15T23:04:36.411Z,15.30
2022-10-15T23:07:02.900Z,15.40
2022-10-15T23:09:29.504Z,15.30
2022-10-15T23:11:55.916Z,15.40
2022-10-15T23:14:22.361Z,15.40
2022-10-15T23:16:48.854Z,15.30
2022-10-15T23:19:18.368Z,15.30
2022-10-15T23:21:52.702Z,15.40
2022-10-15T23:24:21.660Z,15.50
2022-10-15T23:26:48.825Z,15.50
2022-10-15T23:29:18.106Z,15.60
2022-10-15T23:31:45.219Z,15.50
2022-10-15T23:34:25.204Z,15.50
2022-10-15T23:36:52.772Z,15.60
2022-10-15T23:39:22.017Z,15.50
2022-10-15T23:41:48.698Z,15.40
2022-10-15T23:44:15.444Z,15.40
2022-10-15T23:46:41.953Z,15.40
2022-10-15T23:49:08.820Z,15.40
2022-10-15T23:51:35.892Z,15.40
2022-10-15T23:54:03.446Z,15.50
2022-10-15T23:56:30.817Z,15.30
2022-10-15T23:58:59.058Z,15.30
